sensor_id;sensor_type;location;lat;lon;timestamp;pressure;altitude;pressure_sealevel;temperature;humidity
64616;BME280;51027;42.162;24.754;2023-02-26T00:00:12;98735.06;;;10.24;82.48
64616;BME280;51027;42.162;24.754;2023-02-26T00:02:43;98745.19;;;10.14;82.93
64616;BME280;51027;42.162;24.754;2023-02-26T00:05:13;98730.81;;;10.04;82.90
64616;BME280;51027;42.162;24.754;2023-02-26T00:07:39;98742.47;;;10.16;83.67
64616;BME280;51027;42.162;24.754;2023-02-26T00:10:06;98732.81;;;10.16;83.66
64616;BME280;51027;42.162;24.754;2023-02-26T00:12:32;98738.16;;;10.32;82.79
64616;BME280;51027;42.162;24.754;2023-02-26T00:14:58;98737.34;;;10.30;82.81
64616;BME280;51027;42.162;24.754;2023-02-26T00:20:02;98743.81;;;10.24;82.76
64616;BME280;51027;42.162;24.754;2023-02-26T00:22:28;98708.75;;;10.24;82.03
64616;BME280;51027;42.162;24.754;2023-02-26T00:24:54;98722.94;;;10.37;82.23
64616;BME280;51027;42.162;24.754;2023-02-26T00:27:19;98731.59;;;10.39;81.68
64616;BME280;51027;42.162;24.754;2023-02-26T00:29:45;98742.25;;;10.53;81.01
64616;BME280;51027;42.162;24.754;2023-02-26T00:32:11;98738.31;;;10.60;80.82
64616;BME280;51027;42.162;24.754;2023-02-26T00:34:37;98728.56;;;10.62;80.32
64616;BME280;51027;42.162;24.754;2023-02-26T00:42:52;98705.28;;;10.71;79.98
64616;BME280;51027;42.162;24.754;2023-02-26T00:45:18;98717.13;;;10.63;79.98
64616;BME280;51027;42.162;24.754;2023-02-26T00:48:21;98710.56;;;10.71;79.67
64616;BME280;51027;42.162;24.754;2023-02-26T00:51:00;98714.56;;;10.78;79.41
64616;BME280;51027;42.162;24.754;2023-02-26T00:53:34;98707.34;;;10.65;79.77
64616;BME280;51027;42.162;24.754;2023-02-26T00:56:00;98703.59;;;10.70;79.25
64616;BME280;51027;42.162;24.754;2023-02-26T00:58:26;98697.13;;;10.59;79.36
64616;BME280;51027;42.162;24.754;2023-02-26T01:00:51;98697.84;;;10.63;79.68
64616;BME280;51027;42.162;24.754;2023-02-26T01:03:17;98706.31;;;10.68;79.78
64616;BME280;51027;42.162;24.754;2023-02-26T01:05:42;98705.78;;;10.61;80.15
64616;BME280;51027;42.162;24.754;2023-02-26T01:08:16;98689.84;;;10.64;80.06
64616;BME280;51027;42.162;24.754;2023-02-26T01:10:44;98689.50;;;10.55;80.20
64616;BME280;51027;42.162;24.754;2023-02-26T01:13:10;98713.69;;;10.61;80.28
64616;BME280;51027;42.162;24.754;2023-02-26T01:15:36;98713.34;;;10.52;80.60
64616;BME280;51027;42.162;24.754;2023-02-26T01:18:15;98693.75;;;10.57;80.43
64616;BME280;51027;42.162;24.754;2023-02-26T01:20:47;98704.00;;;10.62;79.94
64616;BME280;51027;42.162;24.754;2023-02-26T01:23:15;98676.84;;;10.46;79.70
64616;BME280;51027;42.162;24.754;2023-02-26T01:25:52;98716.75;;;10.70;79.48
64616;BME280;51027;42.162;24.754;2023-02-26T01:28:19;98709.22;;;10.63;80.00
64616;BME280;51027;42.162;24.754;2023-02-26T01:30:45;98703.78;;;10.66;79.83
64616;BME280;51027;42.162;24.754;2023-02-26T01:33:45;98721.84;;;10.73;79.52
64616;BME280;51027;42.162;24.754;2023-02-26T01:36:18;98715.72;;;10.72;79.30
64616;BME280;51027;42.162;24.754;2023-02-26T01:38:55;98724.25;;;10.77;79.06
64616;BME280;51027;42.162;24.754;2023-02-26T01:41:50;98730.28;;;10.63;79.80
64616;BME280;51027;42.162;24.754;2023-02-26T01:44:34;98718.03;;;10.62;80.05
64616;BME280;51027;42.162;24.754;2023-02-26T01:47:15;98716.09;;;10.66;79.85
64616;BME280;51027;42.162;24.754;2023-02-26T01:49:42;98708.09;;;10.67;79.54
64616;BME280;51027;42.162;24.754;2023-02-26T01:55:11;98696.31;;;10.75;79.01
64616;BME280;51027;42.162;24.754;2023-02-26T01:57:36;98706.31;;;10.68;79.63
64616;BME280;51027;42.162;24.754;2023-02-26T02:00:03;98694.50;;;10.75;79.44
64616;BME280;51027;42.162;24.754;2023-02-26T02:02:29;98702.56;;;10.72;79.39
64616;BME280;51027;42.162;24.754;2023-02-26T02:04:54;98664.94;;;10.38;79.95
64616;BME280;51027;42.162;24.754;2023-02-26T02:07:20;98704.53;;;10.68;79.60
64616;BME280;51027;42.162;24.754;2023-02-26T02:09:45;98704.44;;;10.70;79.33
64616;BME280;51027;42.162;24.754;2023-02-26T02:15:15;98718.81;;;10.64;80.00
64616;BME280;51027;42.162;24.754;2023-02-26T02:18:06;98711.00;;;10.63;79.71
64616;BME280;51027;42.162;24.754;2023-02-26T02:23:42;98702.00;;;10.67;79.31
64616;BME280;51027;42.162;24.754;2023-02-26T02:31:53;98696.50;;;11.02;76.35
64616;BME280;51027;42.162;24.754;2023-02-26T02:35:04;98702.34;;;11.22;72.79
64616;BME280;51027;42.162;24.754;2023-02-26T02:37:25;98705.66;;;11.26;74.17
64616;BME280;51027;42.162;24.754;2023-02-26T02:39:56;98696.72;;;11.29;73.51
64616;BME280;51027;42.162;24.754;2023-02-26T02:42:29;98693.06;;;11.31;73.42
64616;BME280;51027;42.162;24.754;2023-02-26T02:45:34;98701.06;;;11.30;73.25
64616;BME280;51027;42.162;24.754;2023-02-26T02:48:09;98699.03;;;11.35;72.38
64616;BME280;51027;42.162;24.754;2023-02-26T02:50:41;98702.81;;;11.45;71.40
64616;BME280;51027;42.162;24.754;2023-02-26T02:53:22;98707.72;;;11.51;71.75
64616;BME280;51027;42.162;24.754;2023-02-26T02:56:01;98714.56;;;11.39;71.63
64616;BME280;51027;42.162;24.754;2023-02-26T02:58:31;98704.50;;;11.46;71.18
64616;BME280;51027;42.162;24.754;2023-02-26T03:01:00;98714.22;;;11.60;70.03
64616;BME280;51027;42.162;24.754;2023-02-26T03:03:34;98721.66;;;11.53;71.18
64616;BME280;51027;42.162;24.754;2023-02-26T03:06:01;98705.16;;;11.49;70.33
64616;BME280;51027;42.162;24.754;2023-02-26T03:08:32;98713.84;;;11.51;70.62
64616;BME280;51027;42.162;24.754;2023-02-26T03:10:59;98711.38;;;11.48;69.97
64616;BME280;51027;42.162;24.754;2023-02-26T03:13:25;98686.00;;;11.32;70.32
64616;BME280;51027;42.162;24.754;2023-02-26T03:21:51;98707.88;;;11.18;72.07
64616;BME280;51027;42.162;24.754;2023-02-26T03:24:37;98694.56;;;11.05;72.21
64616;BME280;51027;42.162;24.754;2023-02-26T03:35:35;98702.19;;;11.25;70.81
64616;BME280;51027;42.162;24.754;2023-02-26T03:38:06;98698.22;;;11.33;70.79
64616;BME280;51027;42.162;24.754;2023-02-26T03:40:40;98700.50;;;11.24;71.04
64616;BME280;51027;42.162;24.754;2023-02-26T03:43:11;98688.94;;;11.11;71.79
64616;BME280;51027;42.162;24.754;2023-02-26T03:45:39;98689.41;;;11.04;72.48
64616;BME280;51027;42.162;24.754;2023-02-26T03:48:09;98701.13;;;10.98;73.20
64616;BME280;51027;42.162;24.754;2023-02-26T03:53:11;98690.75;;;10.95;73.92
64616;BME280;51027;42.162;24.754;2023-02-26T03:55:43;98701.22;;;10.81;74.89
64616;BME280;51027;42.162;24.754;2023-02-26T03:58:10;98675.16;;;10.76;75.12
64616;BME280;51027;42.162;24.754;2023-02-26T04:00:38;98683.22;;;10.73;75.91
64616;BME280;51027;42.162;24.754;2023-02-26T04:05:45;98696.97;;;10.78;75.55
64616;BME280;51027;42.162;24.754;2023-02-26T04:08:12;98677.41;;;10.82;75.44
64616;BME280;51027;42.162;24.754;2023-02-26T04:10:58;98682.63;;;10.84;75.10
64616;BME280;51027;42.162;24.754;2023-02-26T04:13:25;98671.28;;;10.82;74.79
64616;BME280;51027;42.162;24.754;2023-02-26T04:15:50;98688.66;;;10.86;75.08
64616;BME280;51027;42.162;24.754;2023-02-26T04:18:16;98680.31;;;10.93;74.76
64616;BME280;51027;42.162;24.754;2023-02-26T04:20:42;98678.59;;;10.92;74.79
64616;BME280;51027;42.162;24.754;2023-02-26T04:23:07;98673.94;;;10.82;75.50
64616;BME280;51027;42.162;24.754;2023-02-26T04:25:33;98672.84;;;10.70;75.97
64616;BME280;51027;42.162;24.754;2023-02-26T04:27:58;98671.25;;;10.67;76.20
64616;BME280;51027;42.162;24.754;2023-02-26T04:30:23;98670.97;;;10.72;76.32
64616;BME280;51027;42.162;24.754;2023-02-26T04:32:49;98663.34;;;10.67;77.08
64616;BME280;51027;42.162;24.754;2023-02-26T04:35:14;98654.25;;;10.57;77.35
64616;BME280;51027;42.162;24.754;2023-02-26T04:37:39;98650.69;;;10.58;77.79
64616;BME280;51027;42.162;24.754;2023-02-26T04:40:06;98657.41;;;10.64;77.56
64616;BME280;51027;42.162;24.754;2023-02-26T04:42:31;98653.13;;;10.61;77.71
64616;BME280;51027;42.162;24.754;2023-02-26T04:44:56;98658.59;;;10.74;77.29
64616;BME280;51027;42.162;24.754;2023-02-26T04:47:22;98640.31;;;10.71;77.41
64616;BME280;51027;42.162;24.754;2023-02-26T04:49:47;98652.00;;;10.81;77.47
64616;BME280;51027;42.162;24.754;2023-02-26T04:52:13;98654.31;;;10.87;77.81
64616;BME280;51027;42.162;24.754;2023-02-26T04:54:38;98651.44;;;10.76;78.32
64616;BME280;51027;42.162;24.754;2023-02-26T04:57:05;98648.91;;;10.75;78.63
64616;BME280;51027;42.162;24.754;2023-02-26T04:59:30;98632.84;;;10.63;79.11
64616;BME280;51027;42.162;24.754;2023-02-26T05:01:56;98647.13;;;10.75;79.63
64616;BME280;51027;42.162;24.754;2023-02-26T05:04:21;98649.56;;;10.78;79.79
64616;BME280;51027;42.162;24.754;2023-02-26T05:06:46;98656.44;;;10.81;79.98
64616;BME280;51027;42.162;24.754;2023-02-26T05:09:12;98644.91;;;10.83;80.12
64616;BME280;51027;42.162;24.754;2023-02-26T05:11:37;98631.03;;;10.80;79.90
64616;BME280;51027;42.162;24.754;2023-02-26T05:14:03;98626.72;;;10.79;80.45
64616;BME280;51027;42.162;24.754;2023-02-26T05:16:28;98639.88;;;10.94;80.07
64616;BME280;51027;42.162;24.754;2023-02-26T05:18:54;98655.28;;;11.01;80.22
64616;BME280;51027;42.162;24.754;2023-02-26T05:21:19;98654.25;;;11.03;79.99
64616;BME280;51027;42.162;24.754;2023-02-26T05:23:46;98656.56;;;11.09;80.12
64616;BME280;51027;42.162;24.754;2023-02-26T05:26:11;98665.81;;;11.16;80.01
64616;BME280;51027;42.162;24.754;2023-02-26T05:28:37;98664.00;;;11.47;81.41
64616;BME280;51027;42.162;24.754;2023-02-26T05:31:03;98657.69;;;11.49;80.22
64616;BME280;51027;42.162;24.754;2023-02-26T05:33:28;98649.53;;;11.68;77.75
64616;BME280;51027;42.162;24.754;2023-02-26T05:35:53;98648.31;;;11.60;78.04
64616;BME280;51027;42.162;24.754;2023-02-26T05:38:19;98663.63;;;11.53;78.21
64616;BME280;51027;42.162;24.754;2023-02-26T05:40:45;98651.81;;;11.30;78.80
64616;BME280;51027;42.162;24.754;2023-02-26T05:43:10;98683.22;;;11.49;78.74
64616;BME280;51027;42.162;24.754;2023-02-26T05:45:36;98662.31;;;11.46;78.48
64616;BME280;51027;42.162;24.754;2023-02-26T05:48:02;98683.72;;;11.70;77.10
64616;BME280;51027;42.162;24.754;2023-02-26T05:50:27;98712.25;;;11.63;77.89
64616;BME280;51027;42.162;24.754;2023-02-26T05:52:54;98711.25;;;11.66;77.85
64616;BME280;51027;42.162;24.754;2023-02-26T05:55:20;98693.34;;;11.71;77.68
64616;BME280;51027;42.162;24.754;2023-02-26T05:57:46;98696.91;;;11.86;76.99
64616;BME280;51027;42.162;24.754;2023-02-26T06:00:12;98712.63;;;11.87;76.59
64616;BME280;51027;42.162;24.754;2023-02-26T06:02:37;98703.31;;;11.96;76.29
64616;BME280;51027;42.162;24.754;2023-02-26T06:05:03;98684.66;;;11.99;76.18
64616;BME280;51027;42.162;24.754;2023-02-26T06:07:29;98690.00;;;12.26;75.16
64616;BME280;51027;42.162;24.754;2023-02-26T06:09:54;98710.38;;;12.38;74.55
64616;BME280;51027;42.162;24.754;2023-02-26T06:12:20;98718.28;;;12.52;74.37
64616;BME280;51027;42.162;24.754;2023-02-26T06:14:45;98711.75;;;12.72;73.16
64616;BME280;51027;42.162;24.754;2023-02-26T06:17:11;98713.47;;;13.00;72.33
64616;BME280;51027;42.162;24.754;2023-02-26T06:19:36;98717.97;;;13.12;71.70
64616;BME280;51027;42.162;24.754;2023-02-26T06:22:01;98706.75;;;13.09;71.51
64616;BME280;51027;42.162;24.754;2023-02-26T06:24:27;98717.56;;;13.18;71.22
64616;BME280;51027;42.162;24.754;2023-02-26T06:26:52;98720.97;;;13.20;70.99
64616;BME280;51027;42.162;24.754;2023-02-26T06:29:18;98710.41;;;13.20;71.18
64616;BME280;51027;42.162;24.754;2023-02-26T06:31:45;98719.72;;;12.99;71.94
64616;BME280;51027;42.162;24.754;2023-02-26T06:34:10;98708.28;;;12.98;71.72
64616;BME280;51027;42.162;24.754;2023-02-26T06:36:36;98706.31;;;13.15;71.55
64616;BME280;51027;42.162;24.754;2023-02-26T06:39:02;98719.69;;;13.53;71.58
64616;BME280;51027;42.162;24.754;2023-02-26T06:41:27;98733.59;;;13.15;72.28
64616;BME280;51027;42.162;24.754;2023-02-26T06:43:53;98725.13;;;12.83;73.10
64616;BME280;51027;42.162;24.754;2023-02-26T06:46:18;98714.75;;;13.21;71.72
64616;BME280;51027;42.162;24.754;2023-02-26T06:48:44;98700.34;;;13.52;70.72
64616;BME280;51027;42.162;24.754;2023-02-26T06:51:09;98716.91;;;13.81;69.53
64616;BME280;51027;42.162;24.754;2023-02-26T06:53:34;98709.47;;;13.74;69.32
64616;BME280;51027;42.162;24.754;2023-02-26T06:56:00;98725.06;;;13.91;68.40
64616;BME280;51027;42.162;24.754;2023-02-26T06:58:25;98717.97;;;13.92;68.95
64616;BME280;51027;42.162;24.754;2023-02-26T07:00:51;98720.59;;;14.17;67.21
64616;BME280;51027;42.162;24.754;2023-02-26T07:03:17;98729.41;;;14.30;67.26
64616;BME280;51027;42.162;24.754;2023-02-26T07:05:43;98695.69;;;14.58;66.41
64616;BME280;51027;42.162;24.754;2023-02-26T07:08:09;98717.84;;;15.17;64.54
64616;BME280;51027;42.162;24.754;2023-02-26T07:10:36;98710.47;;;16.49;59.78
64616;BME280;51027;42.162;24.754;2023-02-26T07:13:01;98723.03;;;17.88;55.32
64616;BME280;51027;42.162;24.754;2023-02-26T07:15:27;98710.25;;;17.28;56.17
64616;BME280;51027;42.162;24.754;2023-02-26T07:17:53;98715.06;;;16.91;56.88
64616;BME280;51027;42.162;24.754;2023-02-26T07:20:19;98728.19;;;18.00;53.18
64616;BME280;51027;42.162;24.754;2023-02-26T07:22:44;98729.00;;;18.73;51.67
64616;BME280;51027;42.162;24.754;2023-02-26T07:25:11;98733.72;;;18.29;51.63
64616;BME280;51027;42.162;24.754;2023-02-26T07:27:37;98720.69;;;18.66;46.60
64616;BME280;51027;42.162;24.754;2023-02-26T07:30:04;98722.59;;;18.85;46.92
64616;BME280;51027;42.162;24.754;2023-02-26T07:32:30;98724.81;;;20.54;43.86
64616;BME280;51027;42.162;24.754;2023-02-26T07:34:55;98724.78;;;20.91;40.32
64616;BME280;51027;42.162;24.754;2023-02-26T07:37:21;98729.16;;;21.10;39.44
64616;BME280;51027;42.162;24.754;2023-02-26T07:39:46;98708.59;;;21.38;39.38
64616;BME280;51027;42.162;24.754;2023-02-26T07:42:12;98733.47;;;20.76;40.62
64616;BME280;51027;42.162;24.754;2023-02-26T07:44:38;98710.13;;;21.13;38.78
64616;BME280;51027;42.162;24.754;2023-02-26T07:47:03;98726.72;;;21.26;38.35
64616;BME280;51027;42.162;24.754;2023-02-26T07:49:29;98726.78;;;21.88;37.88
64616;BME280;51027;42.162;24.754;2023-02-26T07:51:56;98715.25;;;21.07;38.67
64616;BME280;51027;42.162;24.754;2023-02-26T07:54:22;98708.22;;;21.23;37.63
64616;BME280;51027;42.162;24.754;2023-02-26T07:56:47;98713.97;;;20.83;37.57
64616;BME280;51027;42.162;24.754;2023-02-26T07:59:14;98697.25;;;20.99;37.68
64616;BME280;51027;42.162;24.754;2023-02-26T08:01:39;98689.53;;;20.68;37.63
64616;BME280;51027;42.162;24.754;2023-02-26T08:04:05;98710.75;;;20.80;36.95
64616;BME280;51027;42.162;24.754;2023-02-26T08:06:30;98715.00;;;20.73;37.32
64616;BME280;51027;42.162;24.754;2023-02-26T08:08:56;98709.81;;;20.98;36.82
64616;BME280;51027;42.162;24.754;2023-02-26T08:11:21;98693.38;;;20.84;36.93
64616;BME280;51027;42.162;24.754;2023-02-26T08:13:47;98705.28;;;21.26;36.36
64616;BME280;51027;42.162;24.754;2023-02-26T08:16:13;98699.25;;;21.15;35.99
64616;BME280;51027;42.162;24.754;2023-02-26T08:18:38;98693.28;;;21.66;35.57
64616;BME280;51027;42.162;24.754;2023-02-26T08:21:04;98702.06;;;22.54;34.41
64616;BME280;51027;42.162;24.754;2023-02-26T08:23:29;98714.50;;;22.55;33.86
64616;BME280;51027;42.162;24.754;2023-02-26T08:28:27;98718.16;;;23.39;33.20
64616;BME280;51027;42.162;24.754;2023-02-26T08:30:53;98716.94;;;22.40;34.04
64616;BME280;51027;42.162;24.754;2023-02-26T08:33:19;98696.66;;;22.46;34.00
64616;BME280;51027;42.162;24.754;2023-02-26T08:35:45;98694.03;;;24.04;32.10
64616;BME280;51027;42.162;24.754;2023-02-26T08:38:11;98684.50;;;24.57;30.71
64616;BME280;51027;42.162;24.754;2023-02-26T08:40:37;98688.78;;;23.53;31.82
64616;BME280;51027;42.162;24.754;2023-02-26T08:43:02;98685.25;;;23.45;32.50
64616;BME280;51027;42.162;24.754;2023-02-26T08:45:29;98674.84;;;23.34;32.55
64616;BME280;51027;42.162;24.754;2023-02-26T08:47:54;98686.44;;;23.99;31.67
64616;BME280;51027;42.162;24.754;2023-02-26T08:50:20;98674.47;;;24.42;31.26
64616;BME280;51027;42.162;24.754;2023-02-26T08:52:46;98667.22;;;24.43;31.20
64616;BME280;51027;42.162;24.754;2023-02-26T08:55:11;98671.75;;;25.44;29.98
64616;BME280;51027;42.162;24.754;2023-02-26T08:57:37;98672.59;;;25.44;29.59
64616;BME280;51027;42.162;24.754;2023-02-26T09:00:04;98656.31;;;25.38;29.26
64616;BME280;51027;42.162;24.754;2023-02-26T09:02:29;98657.78;;;24.86;29.43
64616;BME280;51027;42.162;24.754;2023-02-26T09:04:55;98663.75;;;24.02;30.48
64616;BME280;51027;42.162;24.754;2023-02-26T09:07:20;98669.84;;;24.59;30.23
64616;BME280;51027;42.162;24.754;2023-02-26T09:09:45;98681.59;;;25.37;29.27
64616;BME280;51027;42.162;24.754;2023-02-26T09:12:11;98684.78;;;26.38;27.93
64616;BME280;51027;42.162;24.754;2023-02-26T09:14:36;98695.97;;;28.23;26.14
64616;BME280;51027;42.162;24.754;2023-02-26T09:17:03;98707.59;;;26.51;27.54
64616;BME280;51027;42.162;24.754;2023-02-26T09:19:28;98701.19;;;27.96;26.00
64616;BME280;51027;42.162;24.754;2023-02-26T09:21:53;98702.72;;;23.57;30.90
64616;BME280;51027;42.162;24.754;2023-02-26T09:24:20;98695.69;;;24.05;30.85
64616;BME280;51027;42.162;24.754;2023-02-26T09:26:45;98707.47;;;23.63;31.24
64616;BME280;51027;42.162;24.754;2023-02-26T09:29:10;98694.56;;;23.08;31.63
64616;BME280;51027;42.162;24.754;2023-02-26T09:31:37;98690.75;;;22.77;32.48
64616;BME280;51027;42.162;24.754;2023-02-26T09:34:02;98693.19;;;25.14;30.17
64616;BME280;51027;42.162;24.754;2023-02-26T09:36:28;98686.72;;;23.15;31.16
64616;BME280;51027;42.162;24.754;2023-02-26T09:38:55;98684.75;;;23.57;31.05
64616;BME280;51027;42.162;24.754;2023-02-26T09:41:25;98693.78;;;25.93;27.62
64616;BME280;51027;42.162;24.754;2023-02-26T09:52:30;98696.19;;;24.80;29.04
64616;BME280;51027;42.162;24.754;2023-02-26T09:55:10;98684.22;;;25.45;28.53
64616;BME280;51027;42.162;24.754;2023-02-26T09:57:41;98681.97;;;26.61;26.74
64616;BME280;51027;42.162;24.754;2023-02-26T10:03:11;98672.47;;;23.39;28.58
64616;BME280;51027;42.162;24.754;2023-02-26T10:09:01;98651.72;;;21.88;31.00
64616;BME280;51027;42.162;24.754;2023-02-26T10:14:15;98659.19;;;24.74;28.13
64616;BME280;51027;42.162;24.754;2023-02-26T10:16:47;98671.88;;;23.61;28.52
64616;BME280;51027;42.162;24.754;2023-02-26T10:19:17;98646.75;;;25.73;26.71
64616;BME280;51027;42.162;24.754;2023-02-26T10:21:50;98634.00;;;23.38;29.02
64616;BME280;51027;42.162;24.754;2023-02-26T10:24:30;98642.84;;;26.28;25.93
64616;BME280;51027;42.162;24.754;2023-02-26T10:27:02;98649.84;;;23.74;28.29
64616;BME280;51027;42.162;24.754;2023-02-26T10:37:32;98674.81;;;23.09;28.86
64616;BME280;51027;42.162;24.754;2023-02-26T10:40:16;98673.31;;;23.39;28.87
64616;BME280;51027;42.162;24.754;2023-02-26T10:51:24;98650.13;;;23.38;28.87
64616;BME280;51027;42.162;24.754;2023-02-26T10:53:57;98638.22;;;22.66;29.14
64616;BME280;51027;42.162;24.754;2023-02-26T10:56:26;98627.72;;;22.38;29.51
64616;BME280;51027;42.162;24.754;2023-02-26T10:58:54;98634.47;;;21.91;30.57
64616;BME280;51027;42.162;24.754;2023-02-26T11:01:22;98627.97;;;22.19;30.27
64616;BME280;51027;42.162;24.754;2023-02-26T11:04:10;98643.41;;;24.07;28.11
64616;BME280;51027;42.162;24.754;2023-02-26T11:06:40;98629.41;;;24.20;27.49
64616;BME280;51027;42.162;24.754;2023-02-26T11:09:38;98638.38;;;23.15;29.05
64616;BME280;51027;42.162;24.754;2023-02-26T11:14:37;98628.91;;;22.86;29.93
64616;BME280;51027;42.162;24.754;2023-02-26T11:19:41;98617.03;;;23.05;29.34
64616;BME280;51027;42.162;24.754;2023-02-26T11:22:13;98608.72;;;22.82;29.28
64616;BME280;51027;42.162;24.754;2023-02-26T11:24:41;98601.91;;;22.46;29.55
64616;BME280;51027;42.162;24.754;2023-02-26T11:27:20;98619.22;;;23.10;28.90
64616;BME280;51027;42.162;24.754;2023-02-26T11:29:52;98583.94;;;23.70;28.37
64616;BME280;51027;42.162;24.754;2023-02-26T11:32:21;98588.09;;;28.26;23.25
64616;BME280;51027;42.162;24.754;2023-02-26T11:34:49;98601.56;;;27.14;23.92
64616;BME280;51027;42.162;24.754;2023-02-26T11:37:35;98607.81;;;25.75;25.73
64616;BME280;51027;42.162;24.754;2023-02-26T11:40:05;98615.28;;;27.34;24.33
64616;BME280;51027;42.162;24.754;2023-02-26T11:42:43;98612.03;;;27.03;25.50
64616;BME280;51027;42.162;24.754;2023-02-26T11:45:16;98592.16;;;28.09;23.66
64616;BME280;51027;42.162;24.754;2023-02-26T11:47:43;98616.16;;;26.48;24.52
64616;BME280;51027;42.162;24.754;2023-02-26T11:50:20;98587.69;;;25.40;26.09
64616;BME280;51027;42.162;24.754;2023-02-26T11:53:03;98594.56;;;24.27;28.49
64616;BME280;51027;42.162;24.754;2023-02-26T11:55:37;98604.25;;;22.91;30.02
64616;BME280;51027;42.162;24.754;2023-02-26T11:58:23;98596.91;;;23.34;31.51
64616;BME280;51027;42.162;24.754;2023-02-26T12:00:52;98592.19;;;23.68;31.54
64616;BME280;51027;42.162;24.754;2023-02-26T12:03:25;98572.38;;;24.25;30.24
64616;BME280;51027;42.162;24.754;2023-02-26T12:05:53;98571.00;;;23.57;30.41
64616;BME280;51027;42.162;24.754;2023-02-26T12:16:26;98569.22;;;21.82;33.50
64616;BME280;51027;42.162;24.754;2023-02-26T12:22:12;98583.34;;;21.05;34.22
64616;BME280;51027;42.162;24.754;2023-02-26T12:37:41;98579.25;;;20.75;34.92
64616;BME280;51027;42.162;24.754;2023-02-26T12:45:49;98568.75;;;20.99;34.59
64616;BME280;51027;42.162;24.754;2023-02-26T12:53:47;98530.72;;;21.13;32.37
64616;BME280;51027;42.162;24.754;2023-02-26T13:20:36;98573.28;;;20.53;32.74
64616;BME280;51027;42.162;24.754;2023-02-26T13:23:19;98578.44;;;20.47;33.04
64616;BME280;51027;42.162;24.754;2023-02-26T13:25:53;98585.56;;;20.56;33.29
64616;BME280;51027;42.162;24.754;2023-02-26T13:30:57;98604.19;;;20.48;33.08
64616;BME280;51027;42.162;24.754;2023-02-26T13:33:27;98609.06;;;20.25;33.34
64616;BME280;51027;42.162;24.754;2023-02-26T13:35:55;98610.22;;;20.12;33.42
64616;BME280;51027;42.162;24.754;2023-02-26T13:38:32;98629.56;;;20.34;33.17
64616;BME280;51027;42.162;24.754;2023-02-26T13:41:36;98632.38;;;20.32;34.67
64616;BME280;51027;42.162;24.754;2023-02-26T13:49:25;98649.44;;;21.04;33.77
64616;BME280;51027;42.162;24.754;2023-02-26T13:51:54;98648.47;;;20.60;34.39
64616;BME280;51027;42.162;24.754;2023-02-26T13:57:08;98665.50;;;20.12;35.46
64616;BME280;51027;42.162;24.754;2023-02-26T14:04:51;98685.59;;;19.69;36.33
64616;BME280;51027;42.162;24.754;2023-02-26T14:07:47;98679.25;;;19.61;36.17
64616;BME280;51027;42.162;24.754;2023-02-26T14:10:35;98705.56;;;19.55;36.24
64616;BME280;51027;42.162;24.754;2023-02-26T14:13:17;98702.88;;;19.46;36.80
64616;BME280;51027;42.162;24.754;2023-02-26T14:24:04;98689.66;;;19.44;36.31
64616;BME280;51027;42.162;24.754;2023-02-26T14:26:33;98689.66;;;19.35;36.64
64616;BME280;51027;42.162;24.754;2023-02-26T14:29:13;98685.56;;;19.31;36.28
64616;BME280;51027;42.162;24.754;2023-02-26T14:34:28;98695.69;;;19.17;37.05
64616;BME280;51027;42.162;24.754;2023-02-26T14:36:57;98688.81;;;19.24;34.98
64616;BME280;51027;42.162;24.754;2023-02-26T14:39:37;98659.84;;;19.01;35.06
64616;BME280;51027;42.162;24.754;2023-02-26T14:42:12;98685.94;;;18.97;35.80
64616;BME280;51027;42.162;24.754;2023-02-26T14:44:43;98692.56;;;18.93;35.72
64616;BME280;51027;42.162;24.754;2023-02-26T14:47:10;98698.16;;;18.90;35.81
64616;BME280;51027;42.162;24.754;2023-02-26T14:49:39;98688.22;;;18.92;35.85
64616;BME280;51027;42.162;24.754;2023-02-26T14:54:58;98686.06;;;18.76;36.44
64616;BME280;51027;42.162;24.754;2023-02-26T15:00:21;98696.09;;;18.63;36.64
64616;BME280;51027;42.162;24.754;2023-02-26T15:03:15;98710.41;;;18.62;37.17
64616;BME280;51027;42.162;24.754;2023-02-26T15:14:08;98721.03;;;18.52;37.57
64616;BME280;51027;42.162;24.754;2023-02-26T15:24:35;98724.19;;;18.36;38.07
64616;BME280;51027;42.162;24.754;2023-02-26T15:27:02;98727.69;;;18.37;38.38
64616;BME280;51027;42.162;24.754;2023-02-26T15:29:34;98733.72;;;18.39;37.70
64616;BME280;51027;42.162;24.754;2023-02-26T15:34:54;98741.03;;;18.37;38.14
64616;BME280;51027;42.162;24.754;2023-02-26T15:37:21;98748.59;;;18.32;38.82
64616;BME280;51027;42.162;24.754;2023-02-26T15:39:49;98746.91;;;18.31;38.76
64616;BME280;51027;42.162;24.754;2023-02-26T15:42:16;98757.56;;;18.31;38.90
64616;BME280;51027;42.162;24.754;2023-02-26T15:44:42;98770.00;;;18.21;39.06
64616;BME280;51027;42.162;24.754;2023-02-26T15:47:08;98778.06;;;18.09;39.66
64616;BME280;51027;42.162;24.754;2023-02-26T15:49:37;98787.97;;;18.07;39.62
64616;BME280;51027;42.162;24.754;2023-02-26T15:52:06;98782.84;;;17.95;39.43
64616;BME280;51027;42.162;24.754;2023-02-26T15:54:36;98799.47;;;18.08;39.67
64616;BME280;51027;42.162;24.754;2023-02-26T15:57:04;98792.53;;;17.96;39.52
64616;BME280;51027;42.162;24.754;2023-02-26T15:59:31;98808.78;;;17.93;39.96
64616;BME280;51027;42.162;24.754;2023-02-26T16:02:00;98822.50;;;17.77;40.04
64616;BME280;51027;42.162;24.754;2023-02-26T16:04:26;98795.28;;;17.73;40.45
64616;BME280;51027;42.162;24.754;2023-02-26T16:06:54;98800.38;;;17.65;40.84
64616;BME280;51027;42.162;24.754;2023-02-26T16:09:28;98813.94;;;17.73;41.17
64616;BME280;51027;42.162;24.754;2023-02-26T16:11:57;98814.28;;;17.69;41.28
64616;BME280;51027;42.162;24.754;2023-02-26T16:14:28;98825.69;;;17.60;41.65
64616;BME280;51027;42.162;24.754;2023-02-26T16:16:56;98818.19;;;17.53;41.27